createdAt,value
2017-10-10T00:01:18.595Z,99.06
2017-10-10T00:03:46.104Z,99.33
2017-10-10T00:06:13.600Z,99.41
2017-10-10T00:08:41.149Z,99.41
2017-10-10T00:11:08.702Z,99.54
2017-10-10T00:13:36.216Z,99.41
2017-10-10T00:16:03.721Z,99.03
2017-10-10T00:18:31.225Z,97.40
2017-10-10T00:20:58.747Z,98.48
2017-10-10T00:23:26.262Z,98.19
2017-10-10T00:25:53.769Z,97.53
2017-10-10T00:28:21.271Z,97.97
2017-10-10T00:30:48.780Z,98.69
2017-10-10T00:33:16.280Z,98.91
2017-10-10T00:35:43.813Z,99.41
2017-10-10T00:38:11.325Z,99.74
2017-10-10T00:40:38.822Z,99.13
2017-10-10T00:43:06.335Z,99.11
2017-10-10T00:45:33.839Z,99.32
2017-10-10T00:48:01.340Z,99.74
2017-10-10T00:50:28.856Z,99.78
2017-10-10T00:52:56.382Z,99.54
2017-10-10T00:55:23.890Z,99.10
2017-10-10T00:57:51.403Z,99.71
2017-10-10T01:00:18.921Z,99.93
2017-10-10T01:02:46.430Z,99.84
2017-10-10T01:05:14.020Z,99.63
2017-10-10T01:07:41.623Z,99.52
2017-10-10T01:10:09.180Z,98.45
2017-10-10T01:12:36.695Z,97.79
2017-10-10T01:15:04.226Z,98.80
2017-10-10T01:17:31.729Z,99.41
2017-10-10T01:19:59.313Z,99.71
2017-10-10T01:22:26.823Z,99.70
2017-10-10T01:24:54.353Z,99.77
2017-10-10T01:27:21.889Z,99.58
2017-10-10T01:29:50.092Z,99.81
2017-10-10T01:32:17.578Z,99.70
2017-10-10T01:34:45.074Z,99.17
2017-10-10T01:37:12.648Z,98.58
2017-10-10T01:39:40.137Z,99.01
2017-10-10T01:42:07.639Z,99.11
2017-10-10T01:44:35.133Z,98.43
2017-10-10T01:47:02.657Z,98.17
2017-10-10T01:49:30.223Z,98.78
2017-10-10T01:51:57.769Z,99.40
2017-10-10T01:54:25.280Z,99.27
2017-10-10T01:56:52.768Z,99.26
2017-10-10T01:59:20.275Z,99.38
2017-10-10T02:01:47.801Z,99.44
2017-10-10T02:04:15.306Z,99.14
2017-10-10T02:06:42.814Z,99.23
2017-10-10T02:09:10.338Z,99.37
2017-10-10T02:11:37.841Z,99.25
2017-10-10T02:14:05.360Z,98.57
2017-10-10T02:16:32.861Z,98.25
2017-10-10T02:19:00.385Z,98.66
2017-10-10T02:21:28.068Z,99.24
2017-10-10T02:23:55.581Z,99.37
2017-10-10T02:26:23.091Z,99.43
2017-10-10T02:28:50.591Z,99.55
2017-10-10T02:31:18.107Z,99.38
2017-10-10T02:33:45.616Z,99.67
2017-10-10T02:36:13.106Z,99.79
2017-10-10T02:38:40.622Z,99.76
2017-10-10T02:41:08.139Z,99.60
2017-10-10T02:43:35.654Z,99.30
2017-10-10T02:46:03.164Z,98.96
2017-10-10T02:48:30.681Z,99.06
2017-10-10T02:50:58.292Z,99.27
2017-10-10T02:53:25.791Z,98.99
2017-10-10T02:55:53.300Z,98.81
2017-10-10T02:58:20.827Z,98.64
2017-10-10T03:00:48.325Z,98.92
2017-10-10T03:03:15.904Z,99.02
2017-10-10T03:05:43.408Z,98.87
2017-10-10T03:08:10.908Z,99.24
2017-10-10T03:10:38.409Z,99.72
2017-10-10T03:13:05.945Z,99.92
2017-10-10T03:15:33.463Z,100.00
2017-10-10T03:18:01.119Z,99.61
2017-10-10T03:20:28.634Z,99.38
2017-10-10T03:22:56.135Z,99.25
2017-10-10T03:25:23.641Z,99.80
2017-10-10T03:27:51.180Z,99.95
2017-10-10T03:30:18.685Z,100.00
2017-10-10T03:32:47.071Z,100.00
2017-10-10T03:35:14.572Z,99.64
2017-10-10T03:37:42.082Z,99.65
2017-10-10T03:40:09.592Z,99.28
2017-10-10T03:42:37.099Z,99.80
2017-10-10T03:45:04.620Z,100.00
2017-10-10T03:47:32.549Z,100.00
2017-10-10T03:50:00.079Z,100.00
2017-10-10T03:52:27.600Z,100.00
2017-10-10T03:54:55.104Z,99.82
2017-10-10T03:57:22.666Z,99.69
2017-10-10T03:59:50.176Z,99.40
2017-10-10T04:02:17.696Z,99.89
2017-10-10T04:04:45.196Z,100.00
2017-10-10T04:07:12.711Z,100.00
2017-10-10T04:09:40.222Z,100.00
2017-10-10T04:12:07.736Z,100.00
2017-10-10T04:14:35.238Z,100.00
2017-10-10T04:17:02.742Z,99.95
2017-10-10T04:19:30.261Z,99.76
2017-10-10T04:21:57.760Z,99.90
2017-10-10T04:24:25.276Z,100.00
2017-10-10T04:26:54.477Z,99.83
2017-10-10T04:29:22.058Z,99.57
2017-10-10T04:31:49.614Z,99.35
2017-10-10T04:34:17.117Z,99.56
2017-10-10T04:36:44.613Z,99.16
2017-10-10T04:39:12.110Z,99.33
2017-10-10T04:41:39.652Z,99.03
2017-10-10T04:44:07.144Z,97.65
2017-10-10T04:46:34.659Z,97.69
2017-10-10T04:49:02.172Z,97.75
2017-10-10T04:51:29.680Z,97.80
2017-10-10T04:53:57.195Z,97.17
2017-10-10T04:56:24.724Z,97.39
2017-10-10T04:58:52.267Z,97.09
2017-10-10T05:01:19.773Z,97.12
2017-10-10T05:03:47.367Z,97.88
2017-10-10T05:06:14.953Z,98.83
2017-10-10T05:08:42.476Z,99.48
2017-10-10T05:11:10.011Z,99.39
2017-10-10T05:13:37.524Z,99.61
2017-10-10T05:16:05.056Z,99.39
2017-10-10T05:18:32.568Z,99.22
2017-10-10T05:21:00.085Z,98.29
2017-10-10T05:23:27.591Z,98.38
2017-10-10T05:25:55.193Z,98.47
2017-10-10T05:28:22.704Z,97.75
2017-10-10T05:30:50.209Z,98.02
2017-10-10T05:33:17.745Z,98.84
2017-10-10T05:35:45.261Z,98.87
2017-10-10T05:38:12.771Z,99.39
2017-10-10T05:40:40.306Z,99.76
2017-10-10T05:43:07.809Z,99.40
2017-10-10T05:45:35.330Z,98.38
2017-10-10T05:48:02.836Z,97.98
2017-10-10T05:50:30.340Z,98.39
2017-10-10T05:52:57.862Z,98.33
2017-10-10T05:55:25.374Z,98.66
2017-10-10T05:57:52.951Z,98.75
2017-10-10T06:00:20.475Z,98.68
2017-10-10T06:02:47.983Z,98.73
2017-10-10T06:05:15.512Z,98.42
2017-10-10T06:07:43.039Z,98.63
2017-10-10T06:10:10.559Z,99.01
2017-10-10T06:12:38.078Z,98.55
2017-10-10T06:15:05.650Z,97.86
2017-10-10T06:17:33.149Z,95.85
2017-10-10T06:20:00.651Z,94.60
2017-10-10T06:22:28.155Z,95.21
2017-10-10T06:24:55.661Z,95.00
2017-10-10T06:27:23.204Z,93.91
2017-10-10T06:29:50.708Z,95.07
2017-10-10T06:32:18.233Z,95.36
2017-10-10T06:34:45.739Z,94.16
2017-10-10T06:37:13.229Z,94.12
2017-10-10T06:39:40.727Z,94.08
2017-10-10T06:42:08.254Z,92.97
2017-10-10T06:44:35.757Z,90.74
2017-10-10T06:47:03.299Z,90.51
2017-10-10T06:49:30.814Z,90.60
2017-10-10T06:51:58.330Z,90.06
2017-10-10T06:54:25.858Z,90.58
2017-10-10T06:56:53.366Z,91.53
2017-10-10T06:59:20.887Z,90.50
2017-10-10T07:01:48.388Z,88.90
2017-10-10T07:04:15.917Z,89.63
2017-10-10T07:06:43.406Z,89.40
2017-10-10T07:09:10.924Z,89.47
2017-10-10T07:11:38.435Z,88.79
2017-10-10T07:14:05.956Z,87.18
2017-10-10T07:16:33.455Z,85.77
2017-10-10T07:19:00.970Z,86.32
2017-10-10T07:21:28.469Z,86.88
2017-10-10T07:23:55.984Z,87.36
2017-10-10T07:26:23.598Z,85.31
2017-10-10T07:28:51.139Z,85.06
2017-10-10T07:31:18.751Z,85.69
2017-10-10T07:33:46.270Z,84.95
2017-10-10T07:36:13.773Z,85.05
2017-10-10T07:38:41.286Z,85.45
2017-10-10T07:41:08.784Z,85.62
2017-10-10T07:43:36.298Z,85.53
2017-10-10T07:46:03.830Z,85.01
2017-10-10T07:48:31.392Z,85.09
2017-10-10T07:50:58.909Z,84.56
2017-10-10T07:53:28.654Z,85.27
2017-10-10T07:56:06.235Z,86.27
2017-10-10T07:58:33.817Z,86.09
2017-10-10T08:01:01.329Z,87.02
2017-10-10T08:03:28.836Z,85.99
2017-10-10T08:05:56.359Z,84.85
2017-10-10T08:08:24.664Z,84.29
2017-10-10T08:10:52.191Z,83.61
2017-10-10T08:13:19.720Z,83.39
2017-10-10T08:15:47.224Z,83.16
2017-10-10T08:18:14.734Z,83.37
2017-10-10T08:20:42.319Z,81.40
2017-10-10T08:23:09.825Z,80.68
2017-10-10T08:25:37.334Z,81.41
2017-10-10T08:28:04.886Z,80.44
2017-10-10T08:30:32.406Z,80.67
2017-10-10T08:32:59.915Z,77.05
2017-10-10T08:35:27.460Z,76.12
2017-10-10T08:37:54.973Z,76.84
2017-10-10T08:40:22.475Z,73.14
2017-10-10T08:42:50.035Z,72.76
2017-10-10T08:45:17.555Z,71.77
2017-10-10T08:47:45.080Z,71.69
2017-10-10T08:50:12.595Z,71.88
2017-10-10T08:52:40.111Z,73.32
2017-10-10T08:55:07.643Z,75.32
2017-10-10T08:57:35.186Z,75.62
2017-10-10T09:00:02.731Z,76.66
2017-10-10T09:02:30.400Z,74.97
2017-10-10T09:04:57.927Z,72.61
2017-10-10T09:07:25.461Z,71.19
2017-10-10T09:09:53.039Z,71.95
2017-10-10T09:12:20.550Z,72.10
2017-10-10T09:14:48.067Z,71.33
2017-10-10T09:17:15.639Z,72.15
2017-10-10T09:19:43.158Z,73.06
2017-10-10T09:22:10.662Z,75.47
2017-10-10T09:24:38.169Z,75.22
2017-10-10T09:27:05.685Z,74.32
2017-10-10T09:29:33.192Z,75.52
2017-10-10T09:32:00.693Z,77.26
2017-10-10T09:34:28.208Z,75.84
2017-10-10T09:36:55.733Z,76.27
2017-10-10T09:39:23.247Z,79.41
2017-10-10T09:41:50.762Z,78.60
2017-10-10T09:44:18.271Z,80.86
2017-10-10T09:46:45.820Z,81.82
2017-10-10T09:49:13.324Z,81.10
2017-10-10T09:51:40.851Z,80.71
2017-10-10T09:54:08.356Z,80.98
2017-10-10T09:56:36.083Z,81.75
2017-10-10T09:59:03.628Z,82.10
2017-10-10T10:01:31.127Z,82.25
2017-10-10T10:03:58.658Z,81.35
2017-10-10T10:06:26.151Z,79.76
2017-10-10T10:08:53.665Z,80.36
2017-10-10T10:11:21.171Z,81.18
2017-10-10T10:13:48.699Z,79.33
2017-10-10T10:16:16.225Z,77.48
2017-10-10T10:18:43.720Z,76.23
2017-10-10T10:21:11.247Z,79.34
2017-10-10T10:23:38.755Z,77.44
2017-10-10T10:26:06.285Z,78.46
2017-10-10T10:28:33.809Z,77.37
2017-10-10T10:31:01.329Z,78.62
2017-10-10T10:33:28.858Z,77.96
2017-10-10T10:35:56.932Z,76.74
2017-10-10T10:38:24.444Z,76.26
2017-10-10T10:40:51.988Z,76.16
2017-10-10T10:43:19.502Z,77.05
2017-10-10T10:45:47.144Z,75.30
2017-10-10T10:48:14.646Z,75.47
2017-10-10T10:50:42.160Z,76.49
2017-10-10T10:53:09.678Z,75.80
2017-10-10T10:55:37.211Z,76.84
2017-10-10T10:58:04.716Z,78.21
2017-10-10T11:00:32.226Z,78.69
2017-10-10T11:02:59.728Z,76.62
2017-10-10T11:05:27.237Z,77.90
2017-10-10T11:07:54.739Z,76.90
2017-10-10T11:10:22.264Z,78.92
2017-10-10T11:12:49.776Z,78.43
2017-10-10T11:15:17.758Z,77.46
2017-10-10T11:17:45.272Z,78.74
2017-10-10T11:20:12.873Z,77.91
2017-10-10T11:22:40.387Z,78.67
2017-10-10T11:25:07.935Z,79.36
2017-10-10T11:27:35.458Z,78.40
2017-10-10T11:30:03.008Z,79.38
2017-10-10T11:32:30.528Z,78.63
2017-10-10T11:34:58.034Z,79.45
2017-10-10T11:37:25.563Z,79.61
2017-10-10T11:39:53.087Z,78.91
2017-10-10T11:42:20.606Z,78.53
2017-10-10T11:44:48.119Z,78.22
2017-10-10T11:47:15.647Z,78.46
2017-10-10T11:49:43.168Z,77.23
2017-10-10T11:52:10.708Z,77.78
2017-10-10T11:54:39.154Z,77.91
2017-10-10T11:57:06.665Z,77.93
2017-10-10T11:59:34.271Z,79.61
2017-10-10T12:02:01.772Z,80.63
2017-10-10T12:04:29.306Z,81.93
2017-10-10T12:06:56.901Z,82.74
2017-10-10T12:09:24.419Z,83.41
2017-10-10T12:11:51.936Z,83.37
2017-10-10T12:14:19.439Z,83.71
2017-10-10T12:16:46.971Z,84.62
2017-10-10T12:19:14.489Z,85.38
2017-10-10T12:21:42.128Z,86.44
2017-10-10T12:24:09.644Z,86.62
2017-10-10T12:26:37.175Z,86.93
2017-10-10T12:29:04.723Z,86.54
2017-10-10T12:31:32.244Z,87.20
2017-10-10T12:33:59.786Z,85.22
2017-10-10T12:36:27.699Z,87.08
2017-10-10T12:38:55.287Z,85.67
2017-10-10T12:41:22.804Z,84.86
2017-10-10T12:43:50.319Z,87.38
2017-10-10T12:46:17.828Z,86.88
2017-10-10T12:48:45.334Z,86.86
2017-10-10T12:51:12.850Z,86.60
2017-10-10T12:53:40.364Z,87.71
2017-10-10T12:56:07.872Z,89.11
2017-10-10T12:58:35.376Z,89.14
2017-10-10T13:01:02.907Z,87.93
2017-10-10T13:03:30.425Z,88.44
2017-10-10T13:05:58.006Z,89.15
2017-10-10T13:08:25.540Z,89.03
2017-10-10T13:10:53.124Z,89.45
2017-10-10T13:13:20.641Z,90.03
2017-10-10T13:15:48.830Z,90.77
2017-10-10T13:18:16.358Z,90.65
2017-10-10T13:20:43.867Z,90.62
2017-10-10T13:23:11.371Z,90.18
2017-10-10T13:25:38.899Z,89.23
2017-10-10T13:28:06.422Z,89.90
2017-10-10T13:30:33.968Z,90.09
2017-10-10T13:33:01.496Z,89.91
2017-10-10T13:35:29.042Z,90.50
2017-10-10T13:37:56.566Z,88.53
2017-10-10T13:40:24.103Z,90.63
2017-10-10T13:42:51.637Z,88.79
2017-10-10T13:45:19.197Z,90.20
2017-10-10T13:47:46.704Z,90.67
2017-10-10T13:50:14.241Z,91.83
2017-10-10T13:52:41.791Z,90.59
2017-10-10T13:55:09.319Z,91.82
2017-10-10T13:57:36.852Z,91.72
2017-10-10T14:00:04.387Z,93.31
2017-10-10T14:02:31.904Z,92.95
2017-10-10T14:04:59.414Z,92.66
2017-10-10T14:07:26.974Z,92.08
2017-10-10T14:09:54.485Z,92.43
2017-10-10T14:12:22.103Z,91.57
2017-10-10T14:14:49.633Z,91.68
2017-10-10T14:17:17.182Z,91.46
2017-10-10T14:19:44.703Z,91.00
2017-10-10T14:22:12.228Z,90.36
2017-10-10T14:24:39.739Z,90.71
2017-10-10T14:27:07.263Z,89.83
2017-10-10T14:29:34.778Z,90.80
2017-10-10T14:32:02.319Z,87.96
2017-10-10T14:34:29.856Z,86.80
2017-10-10T14:36:57.379Z,87.54
2017-10-10T14:39:24.919Z,83.99
2017-10-10T14:41:52.491Z,84.19
2017-10-10T14:44:20.017Z,86.03
2017-10-10T14:46:47.544Z,87.49
2017-10-10T14:49:15.064Z,88.30
2017-10-10T14:51:42.616Z,90.02
2017-10-10T14:54:10.126Z,90.45
2017-10-10T14:56:37.639Z,89.56
2017-10-10T14:59:05.145Z,90.74
2017-10-10T15:01:32.654Z,90.92
2017-10-10T15:04:00.170Z,92.37
2017-10-10T15:06:27.708Z,90.41
2017-10-10T15:08:55.248Z,92.08
2017-10-10T15:11:22.752Z,90.96
2017-10-10T15:13:50.292Z,91.71
2017-10-10T15:16:17.818Z,89.98
2017-10-10T15:18:45.319Z,91.12
2017-10-10T15:21:12.823Z,91.18
2017-10-10T15:23:40.344Z,91.19
2017-10-10T15:26:07.863Z,91.34
2017-10-10T15:28:35.427Z,90.68
2017-10-10T15:31:02.939Z,90.79
2017-10-10T15:33:30.462Z,90.89
2017-10-10T15:35:57.997Z,90.27
2017-10-10T15:38:25.524Z,89.46
2017-10-10T15:40:53.187Z,89.51
2017-10-10T15:43:20.702Z,89.70
2017-10-10T15:45:48.238Z,91.62
2017-10-10T15:48:15.759Z,91.67
2017-10-10T15:50:43.295Z,91.26
2017-10-10T15:53:10.863Z,92.00
2017-10-10T15:55:38.358Z,92.41
2017-10-10T15:58:05.878Z,92.46
2017-10-10T16:00:33.497Z,92.53
2017-10-10T16:03:01.019Z,93.67
2017-10-10T16:05:28.528Z,93.08
2017-10-10T16:07:56.049Z,93.13
2017-10-10T16:10:23.561Z,93.31
2017-10-10T16:12:51.076Z,94.66
2017-10-10T16:15:18.644Z,95.70
2017-10-10T16:17:46.159Z,96.62
2017-10-10T16:20:13.667Z,97.73
2017-10-10T16:22:41.235Z,98.37
2017-10-10T16:25:08.745Z,98.27
2017-10-10T16:27:36.248Z,98.41
2017-10-10T16:30:03.767Z,99.11
2017-10-10T16:32:31.368Z,99.18
2017-10-10T16:34:58.880Z,99.11
2017-10-10T16:37:26.419Z,98.86
2017-10-10T16:39:53.936Z,97.47
2017-10-10T16:42:21.454Z,96.52
2017-10-10T16:44:48.971Z,95.11
2017-10-10T16:47:16.475Z,93.50
2017-10-10T16:49:43.986Z,93.04
2017-10-10T16:52:11.501Z,94.07
2017-10-10T16:54:39.012Z,95.52
2017-10-10T16:57:06.540Z,94.60
2017-10-10T16:59:34.069Z,93.90
2017-10-10T17:02:01.599Z,92.24
2017-10-10T17:04:29.113Z,92.99
2017-10-10T17:06:56.777Z,92.06
2017-10-10T17:09:24.310Z,92.78
2017-10-10T17:11:51.859Z,92.79
2017-10-10T17:14:19.496Z,94.11
2017-10-10T17:16:47.056Z,92.84
2017-10-10T17:19:14.718Z,91.73
2017-10-10T17:21:42.244Z,93.18
2017-10-10T17:24:09.769Z,93.98
2017-10-10T17:26:37.285Z,94.57
2017-10-10T17:29:04.817Z,95.12
2017-10-10T17:31:32.467Z,96.03
2017-10-10T17:34:00.141Z,96.27
2017-10-10T17:36:27.680Z,97.28
2017-10-10T17:38:55.274Z,97.70
2017-10-10T17:41:22.811Z,97.54
2017-10-10T17:43:50.510Z,97.48
2017-10-10T17:46:18.108Z,97.60
2017-10-10T17:48:45.703Z,97.86
2017-10-10T17:51:13.392Z,98.44
2017-10-10T17:53:41.080Z,99.20
2017-10-10T17:56:08.920Z,99.14
2017-10-10T17:58:36.784Z,99.15
2017-10-10T18:01:04.855Z,99.40
2017-10-10T18:03:32.823Z,99.67
2017-10-10T18:06:00.896Z,99.81
2017-10-10T18:08:28.891Z,99.88
2017-10-10T18:10:56.840Z,99.91
2017-10-10T18:13:24.801Z,100.00
2017-10-10T18:15:52.663Z,99.94
2017-10-10T18:18:20.534Z,99.62
2017-10-10T18:20:48.601Z,99.53
2017-10-10T18:23:16.582Z,99.82
2017-10-10T18:25:44.436Z,99.97
2017-10-10T18:28:12.406Z,100.00
2017-10-10T18:30:40.476Z,100.00
2017-10-10T18:33:08.547Z,100.00
2017-10-10T18:35:36.424Z,100.00
2017-10-10T18:38:04.412Z,100.00
2017-10-10T18:40:33.374Z,100.00
2017-10-10T18:43:01.250Z,100.00
2017-10-10T18:45:29.210Z,100.00
2017-10-10T18:47:57.181Z,100.00
2017-10-10T18:50:25.248Z,100.00
2017-10-10T18:52:53.216Z,100.00
2017-10-10T18:55:21.184Z,100.00
2017-10-10T18:57:49.152Z,100.00
2017-10-10T19:00:17.121Z,100.00
2017-10-10T19:02:45.093Z,100.00
2017-10-10T19:05:13.161Z,100.00
2017-10-10T19:07:41.026Z,100.00
2017-10-10T19:10:08.891Z,100.00
2017-10-10T19:12:36.865Z,100.00
2017-10-10T19:15:04.932Z,100.00
2017-10-10T19:17:32.804Z,100.00
2017-10-10T19:20:00.663Z,100.00
2017-10-10T19:22:28.631Z,100.00
2017-10-10T19:24:56.815Z,100.00
2017-10-10T19:27:24.847Z,100.00
2017-10-10T19:29:52.846Z,100.00
2017-10-10T19:32:20.812Z,100.00
2017-10-10T19:34:48.666Z,100.00
2017-10-10T19:37:16.529Z,100.00
2017-10-10T19:39:44.412Z,100.00
2017-10-10T19:42:12.380Z,100.00
2017-10-10T19:44:40.386Z,100.00
2017-10-10T19:47:08.316Z,100.00
2017-10-10T19:49:36.386Z,100.00
2017-10-10T19:52:04.251Z,100.00
2017-10-10T19:54:32.142Z,100.00
2017-10-10T19:57:00.188Z,100.00
2017-10-10T19:59:28.055Z,100.00
2017-10-10T20:01:56.025Z,100.00
2017-10-10T20:04:24.094Z,100.00
2017-10-10T20:06:51.960Z,100.00
2017-10-10T20:09:20.068Z,100.00
2017-10-10T20:11:48.311Z,100.00
2017-10-10T20:14:16.377Z,100.00
2017-10-10T20:16:44.244Z,100.00
2017-10-10T20:19:12.225Z,100.00
2017-10-10T20:21:40.182Z,100.00
2017-10-10T20:24:08.066Z,100.00
2017-10-10T20:26:35.913Z,100.00
2017-10-10T20:29:03.758Z,100.00
2017-10-10T20:31:31.497Z,100.00
2017-10-10T20:33:59.045Z,100.00
2017-10-10T20:36:26.620Z,100.00
2017-10-10T20:38:54.157Z,100.00
2017-10-10T20:41:21.777Z,100.00
2017-10-10T20:43:49.319Z,100.00
2017-10-10T20:46:16.855Z,100.00
2017-10-10T20:48:44.373Z,100.00
2017-10-10T20:51:11.895Z,100.00
2017-10-10T20:53:39.441Z,100.00
2017-10-10T20:56:06.967Z,100.00
2017-10-10T20:58:34.492Z,100.00
2017-10-10T21:01:02.012Z,100.00
2017-10-10T21:03:29.543Z,100.00
2017-10-10T21:05:57.057Z,100.00
2017-10-10T21:08:24.597Z,100.00
2017-10-10T21:10:52.129Z,100.00
2017-10-10T21:13:19.657Z,100.00
2017-10-10T21:15:47.212Z,100.00
2017-10-10T21:18:14.761Z,100.00
2017-10-10T21:20:42.410Z,100.00
2017-10-10T21:23:09.918Z,99.03
2017-10-10T21:25:37.436Z,99.63
2017-10-10T21:28:04.982Z,100.00
2017-10-10T21:30:32.540Z,100.00
2017-10-10T21:33:00.101Z,100.00
2017-10-10T21:35:27.658Z,100.00
2017-10-10T21:37:55.172Z,100.00
2017-10-10T21:40:22.670Z,100.00
2017-10-10T21:42:50.195Z,100.00
2017-10-10T21:45:17.709Z,100.00
2017-10-10T21:47:45.234Z,100.00
2017-10-10T21:50:12.743Z,100.00
2017-10-10T21:52:40.369Z,100.00
2017-10-10T21:55:07.898Z,100.00
2017-10-10T21:57:35.414Z,100.00
2017-10-10T22:00:02.947Z,100.00
2017-10-10T22:02:30.490Z,100.00
2017-10-10T22:04:58.009Z,100.00
2017-10-10T22:07:25.518Z,100.00
2017-10-10T22:09:53.029Z,100.00
2017-10-10T22:12:20.566Z,100.00
2017-10-10T22:14:48.094Z,100.00
2017-10-10T22:17:15.619Z,100.00
2017-10-10T22:19:43.131Z,100.00
2017-10-10T22:22:10.653Z,100.00
2017-10-10T22:24:38.167Z,100.00
2017-10-10T22:27:05.677Z,100.00
2017-10-10T22:29:33.342Z,100.00
2017-10-10T22:32:00.860Z,100.00
2017-10-10T22:34:28.355Z,100.00
2017-10-10T22:36:55.867Z,100.00
2017-10-10T22:39:23.399Z,100.00
2017-10-10T22:41:50.925Z,100.00
2017-10-10T22:44:18.443Z,100.00
2017-10-10T22:46:46.097Z,100.00
2017-10-10T22:49:13.621Z,100.00
2017-10-10T22:51:41.147Z,100.00
2017-10-10T22:54:08.681Z,100.00
2017-10-10T22:56:36.242Z,100.00
2017-10-10T22:59:03.757Z,99.71
2017-10-10T23:01:31.287Z,100.00
2017-10-10T23:03:58.808Z,100.00
2017-10-10T23:06:26.323Z,100.00
2017-10-10T23:08:53.974Z,100.00
2017-10-10T23:11:21.531Z,100.00
2017-10-10T23:13:49.115Z,100.00
2017-10-10T23:16:16.664Z,100.00
2017-10-10T23:18:44.178Z,100.00
2017-10-10T23:21:11.703Z,100.00
2017-10-10T23:23:39.243Z,100.00
2017-10-10T23:26:06.776Z,100.00
2017-10-10T23:28:34.292Z,100.00
2017-10-10T23:31:01.839Z,100.00
2017-10-10T23:33:29.356Z,100.00
2017-10-10T23:35:56.868Z,100.00
2017-10-10T23:38:24.420Z,100.00
2017-10-10T23:40:52.033Z,100.00
2017-10-10T23:43:19.553Z,100.00
2017-10-10T23:45:47.074Z,100.00
2017-10-10T23:48:14.590Z,100.00
2017-10-10T23:50:42.099Z,100.00
2017-10-10T23:53:09.616Z,100.00
2017-10-10T23:55:37.134Z,100.00
2017-10-10T23:58:04.644Z,100.00
